Time;durP1;ratioP1;P1;durP2;ratioP2;P2;SDS_P1;SDS_P2;PMS_P1;PMS_P2;Temp;Humidity;BMP_temperature;BMP_pressure;BME280_temperature;BME280_humidity;BME280_pressure;Samples;Min_cycle;Max_cycle;Signal;HPM_P1;HPM_P2
2023/05/07 00:00:15;;;;;;;0.65;0.65;;;;;;;;;;5075954;28;20039;-76
2023/05/07 00:02:40;;;;;;;0.10;0.10;;;;;;;;;;5082402;28;20032;-77
2023/05/07 00:05:07;;;;;;;0.10;0.10;;;;;;;;;;5086946;28;20040;-77
2023/05/07 00:07:32;;;;;;;0.20;0.20;;;;;;;;;;5088288;28;20391;-76
2023/05/07 00:09:57;;;;;;;0.20;0.20;;;;;;;;;;5080485;28;20040;-75
2023/05/07 00:12:23;;;;;;;0.10;0.10;;;;;;;;;;5075850;28;20074;-76
2023/05/07 00:14:49;;;;;;;0.25;0.25;;;;;;;;;;5075688;28;20029;-76
2023/05/07 00:17:14;;;;;;;0.32;0.32;;;;;;;;;;5079405;28;20369;-72
2023/05/07 00:19:40;;;;;;;0.10;0.10;;;;;;;;;;5093901;28;20433;-74
2023/05/07 00:22:05;;;;;;;0.10;0.10;;;;;;;;;;5081236;28;20083;-73
2023/05/07 00:24:31;;;;;;;0.35;0.35;;;;;;;;;;5069330;28;20062;-73
2023/05/07 00:26:57;;;;;;;0.30;0.30;;;;;;;;;;5095726;28;20059;-74
2023/05/07 00:29:23;;;;;;;0.30;0.30;;;;;;;;;;5077513;28;20047;-76
2023/05/07 00:31:49;;;;;;;1.38;1.15;;;;;;;;;;5077415;28;20056;-75
2023/05/07 00:34:14;;;;;;;0.10;0.10;;;;;;;;;;5077466;28;20103;-75
2023/05/07 00:36:40;;;;;;;0.10;0.10;;;;;;;;;;5077022;28;20043;-75
2023/05/07 00:39:05;;;;;;;0.10;0.10;;;;;;;;;;5077189;28;20122;-75
2023/05/07 00:41:31;;;;;;;0.10;0.10;;;;;;;;;;5095498;28;20063;-75
2023/05/07 00:43:56;;;;;;;0.20;0.20;;;;;;;;;;5077448;28;20088;-76
2023/05/07 00:46:22;;;;;;;0.10;0.10;;;;;;;;;;5077329;28;20043;-75
2023/05/07 00:48:48;;;;;;;0.20;0.20;;;;;;;;;;5095582;28;20509;-75
2023/05/07 00:51:13;;;;;;;0.20;0.20;;;;;;;;;;5095132;28;20043;-75
2023/05/07 00:53:39;;;;;;;0.10;0.10;;;;;;;;;;5077089;28;20038;-73
2023/05/07 00:56:06;;;;;;;0.70;0.70;;;;;;;;;;5088823;28;20035;-74
2023/05/07 00:58:32;;;;;;;0.35;0.35;;;;;;;;;;5095064;28;20039;-75
2023/05/07 01:00:57;;;;;;;0.13;0.13;;;;;;;;;;5076931;28;20031;-75
2023/05/07 01:03:23;;;;;;;0.20;0.20;;;;;;;;;;5077098;28;20024;-74
2023/05/07 01:05:50;;;;;;;0.10;0.10;;;;;;;;;;5094999;28;20063;-75
2023/05/07 01:08:16;;;;;;;0.20;0.20;;;;;;;;;;5093444;28;20036;-75
2023/05/07 01:10:42;;;;;;;0.10;0.10;;;;;;;;;;5076988;28;20036;-75
2023/05/07 01:13:10;;;;;;;0.10;0.10;;;;;;;;;;5095146;28;20439;-75
2023/05/07 01:15:35;;;;;;;0.15;0.15;;;;;;;;;;5076881;28;20043;-75
2023/05/07 01:18:02;;;;;;;0.10;0.10;;;;;;;;;;5076820;28;20059;-75
2023/05/07 01:20:32;;;;;;;0.52;0.52;;;;;;;;;;5076805;28;20031;-75
2023/05/07 01:22:58;;;;;;;0.20;0.20;;;;;;;;;;5076917;28;21161;-75
2023/05/07 01:25:24;;;;;;;0.20;0.20;;;;;;;;;;5075429;28;20035;-75
2023/05/07 01:27:52;;;;;;;0.63;0.63;;;;;;;;;;5060392;28;20035;-75
2023/05/07 01:30:21;;;;;;;14.65;13.45;;;;;;;;;;5094674;28;20153;-75
2023/05/07 01:32:50;;;;;;;0.10;0.10;;;;;;;;;;5094938;28;20082;-76
2023/05/07 01:35:18;;;;;;;0.10;0.10;;;;;;;;;;5076649;28;20425;-75
2023/05/07 01:37:44;;;;;;;0.10;0.10;;;;;;;;;;5089238;28;20376;-76
2023/05/07 01:40:10;;;;;;;3.30;1.38;;;;;;;;;;5074427;28;20036;-75
2023/05/07 01:42:35;;;;;;;0.15;0.15;;;;;;;;;;5074419;28;20036;-76
2023/05/07 01:45:02;;;;;;;0.22;0.22;;;;;;;;;;5056414;28;20040;-75
2023/05/07 01:47:28;;;;;;;0.10;0.10;;;;;;;;;;5056315;28;20039;-75
2023/05/07 01:49:54;;;;;;;0.45;0.45;;;;;;;;;;5073967;28;20032;-75
2023/05/07 01:52:19;;;;;;;0.93;0.93;;;;;;;;;;5066272;28;20039;-75
2023/05/07 01:54:45;;;;;;;0.17;0.17;;;;;;;;;;5076348;28;20360;-75
2023/05/07 01:57:10;;;;;;;2.30;1.25;;;;;;;;;;5076075;28;20081;-75
2023/05/07 01:59:36;;;;;;;0.20;0.20;;;;;;;;;;5076367;28;20392;-75
2023/05/07 02:02:01;;;;;;;0.20;0.20;;;;;;;;;;5076043;28;20040;-75
2023/05/07 02:04:27;;;;;;;0.13;0.13;;;;;;;;;;5093887;28;20043;-75
2023/05/07 02:06:53;;;;;;;0.10;0.10;;;;;;;;;;5076043;28;20036;-75
2023/05/07 02:09:19;;;;;;;0.10;0.10;;;;;;;;;;5075370;28;20439;-75
2023/05/07 02:11:47;;;;;;;0.10;0.10;;;;;;;;;;5076082;28;20070;-75
2023/05/07 02:14:13;;;;;;;0.40;0.40;;;;;;;;;;5094191;28;20475;-76
2023/05/07 02:16:38;;;;;;;0.20;0.20;;;;;;;;;;5075928;28;20032;-75
2023/05/07 02:19:04;;;;;;;0.10;0.10;;;;;;;;;;5075523;28;20031;-76
2023/05/07 02:21:29;;;;;;;0.10;0.10;;;;;;;;;;5094321;28;20390;-75
2023/05/07 02:23:55;;;;;;;0.10;0.10;;;;;;;;;;5094118;28;20436;-75
2023/05/07 02:26:21;;;;;;;0.20;0.20;;;;;;;;;;5074926;28;20031;-75
2023/05/07 02:28:47;;;;;;;0.10;0.10;;;;;;;;;;5075757;28;20024;-75
2023/05/07 02:31:13;;;;;;;0.17;0.17;;;;;;;;;;5075620;28;20036;-74
2023/05/07 02:33:38;;;;;;;0.57;0.57;;;;;;;;;;5075482;28;20028;-74
2023/05/07 02:36:07;;;;;;;0.10;0.10;;;;;;;;;;5075324;28;20123;-74
2023/05/07 02:38:34;;;;;;;0.22;0.22;;;;;;;;;;5074857;28;20042;-73
2023/05/07 02:41:00;;;;;;;0.20;0.20;;;;;;;;;;5075629;28;20036;-75
2023/05/07 02:43:25;;;;;;;0.20;0.20;;;;;;;;;;5075711;28;20470;-75
2023/05/07 02:46:00;;;;;;;0.20;0.20;;;;;;;;;;5075476;28;20139;-75
2023/05/07 02:48:25;;;;;;;0.20;0.20;;;;;;;;;;5075296;28;20134;-75
2023/05/07 02:50:51;;;;;;;0.10;0.10;;;;;;;;;;5074943;28;20123;-75
2023/05/07 02:53:16;;;;;;;0.10;0.10;;;;;;;;;;5074671;28;20024;-75
2023/05/07 02:55:42;;;;;;;0.10;0.10;;;;;;;;;;5075217;28;20039;-75
2023/05/07 02:58:07;;;;;;;0.10;0.10;;;;;;;;;;5075221;28;20024;-75
2023/05/07 03:00:35;;;;;;;0.10;0.10;;;;;;;;;;5075117;28;20380;-75
2023/05/07 03:03:16;;;;;;;0.15;0.15;;;;;;;;;;5070415;28;20032;-75
2023/05/07 03:05:42;;;;;;;0.10;0.10;;;;;;;;;;5071334;28;20483;-75
2023/05/07 03:08:08;;;;;;;0.10;0.10;;;;;;;;;;5089101;28;20046;-75
2023/05/07 03:10:33;;;;;;;0.10;0.10;;;;;;;;;;5089261;28;20154;-74
2023/05/07 03:12:59;;;;;;;0.10;0.10;;;;;;;;;;5071151;28;20123;-75
2023/05/07 03:15:24;;;;;;;0.10;0.10;;;;;;;;;;5089274;28;20040;-75
2023/05/07 03:17:50;;;;;;;0.20;0.20;;;;;;;;;;5088451;28;20095;-73
2023/05/07 03:20:15;;;;;;;0.20;0.20;;;;;;;;;;5071217;28;20169;-73
2023/05/07 03:22:41;;;;;;;0.10;0.10;;;;;;;;;;5070784;28;20505;-77
2023/05/07 03:25:06;;;;;;;0.10;0.10;;;;;;;;;;5053871;28;20032;-75
2023/05/07 03:27:32;;;;;;;0.15;0.15;;;;;;;;;;5087686;28;20038;-75
2023/05/07 03:29:57;;;;;;;0.10;0.10;;;;;;;;;;5070471;28;20044;-75
2023/05/07 03:32:23;;;;;;;0.10;0.10;;;;;;;;;;5070656;28;20119;-75
2023/05/07 03:34:48;;;;;;;0.10;0.10;;;;;;;;;;5054152;28;20061;-75
2023/05/07 03:37:14;;;;;;;0.10;0.10;;;;;;;;;;5070080;28;20039;-74
2023/05/07 03:39:40;;;;;;;0.10;0.10;;;;;;;;;;5070664;28;20064;-73
2023/05/07 03:42:06;;;;;;;0.10;0.10;;;;;;;;;;5070271;28;20063;-73
2023/05/07 03:44:32;;;;;;;0.10;0.10;;;;;;;;;;5070391;28;20063;-74
2023/05/07 03:46:58;;;;;;;0.10;0.10;;;;;;;;;;5070416;28;20127;-73
2023/05/07 03:49:24;;;;;;;0.10;0.10;;;;;;;;;;5088604;28;20131;-75
2023/05/07 03:51:49;;;;;;;0.10;0.10;;;;;;;;;;5051717;28;20035;-73
2023/05/07 03:54:15;;;;;;;0.10;0.10;;;;;;;;;;5067982;28;20093;-73
2023/05/07 03:56:43;;;;;;;0.20;0.20;;;;;;;;;;5063352;28;20900;-74
2023/05/07 03:59:09;;;;;;;0.15;0.15;;;;;;;;;;5070304;28;20040;-73
2023/05/07 04:01:34;;;;;;;0.10;0.10;;;;;;;;;;5069139;28;20483;-73
2023/05/07 04:04:00;;;;;;;0.20;0.20;;;;;;;;;;5070110;28;20066;-73
2023/05/07 04:06:27;;;;;;;0.10;0.10;;;;;;;;;;5087065;28;20074;-73
2023/05/07 04:08:53;;;;;;;0.10;0.10;;;;;;;;;;5070384;28;20055;-73
2023/05/07 04:11:18;;;;;;;0.10;0.10;;;;;;;;;;5070168;28;20036;-74
2023/05/07 04:13:44;;;;;;;0.13;0.13;;;;;;;;;;5070124;28;20138;-73
2023/05/07 04:16:10;;;;;;;0.10;0.10;;;;;;;;;;5069682;28;20064;-72
2023/05/07 04:18:37;;;;;;;0.10;0.10;;;;;;;;;;5070044;28;20124;-73
2023/05/07 04:21:03;;;;;;;0.10;0.10;;;;;;;;;;5086835;28;20061;-74
2023/05/07 04:23:30;;;;;;;0.10;0.10;;;;;;;;;;5088089;28;20119;-73
2023/05/07 04:25:58;;;;;;;0.20;0.20;;;;;;;;;;5069606;28;20070;-73
2023/05/07 04:28:38;;;;;;;0.10;0.10;;;;;;;;;;5069716;28;20127;-73
2023/05/07 04:31:03;;;;;;;0.20;0.20;;;;;;;;;;5072159;28;20043;-73
2023/05/07 04:33:31;;;;;;;0.20;0.20;;;;;;;;;;5073361;28;20047;-73
2023/05/07 04:35:58;;;;;;;0.10;0.10;;;;;;;;;;5072206;28;20028;-74
2023/05/07 04:38:24;;;;;;;2.88;2.72;;;;;;;;;;5073707;28;20047;-74
2023/05/07 04:40:51;;;;;;;0.10;0.10;;;;;;;;;;5072619;28;20039;-73
2023/05/07 04:43:21;;;;;;;0.20;0.20;;;;;;;;;;5071503;28;20118;-73
2023/05/07 04:45:52;;;;;;;0.10;0.10;;;;;;;;;;5072152;28;20028;-74
2023/05/07 04:48:20;;;;;;;0.15;0.15;;;;;;;;;;5091423;28;20032;-73
2023/05/07 04:50:48;;;;;;;0.13;0.13;;;;;;;;;;5072571;28;20031;-74
2023/05/07 04:53:13;;;;;;;0.82;0.82;;;;;;;;;;5070988;28;20035;-73
2023/05/07 04:55:39;;;;;;;0.30;0.30;;;;;;;;;;5073435;28;20032;-73
2023/05/07 04:58:06;;;;;;;0.10;0.10;;;;;;;;;;5072561;28;20028;-72
2023/05/07 05:00:33;;;;;;;0.20;0.20;;;;;;;;;;5071954;28;20035;-74
2023/05/07 05:03:01;;;;;;;0.20;0.20;;;;;;;;;;5056814;28;20038;-73
2023/05/07 05:05:28;;;;;;;0.10;0.10;;;;;;;;;;5071176;28;20161;-76
2023/05/07 05:07:54;;;;;;;0.20;0.20;;;;;;;;;;5067385;28;20059;-75
2023/05/07 05:10:20;;;;;;;0.10;0.10;;;;;;;;;;5071836;28;20152;-75
2023/05/07 05:12:46;;;;;;;0.10;0.10;;;;;;;;;;5070218;28;20036;-75
2023/05/07 05:15:12;;;;;;;0.10;0.10;;;;;;;;;;5067570;28;20067;-74
2023/05/07 05:17:38;;;;;;;0.10;0.10;;;;;;;;;;5072691;28;20043;-76
2023/05/07 05:20:05;;;;;;;0.10;0.10;;;;;;;;;;5072268;28;20487;-73
2023/05/07 05:22:31;;;;;;;0.10;0.10;;;;;;;;;;5072918;28;20456;-75
2023/05/07 05:24:59;;;;;;;0.20;0.20;;;;;;;;;;5072399;28;20063;-72
2023/05/07 05:27:24;;;;;;;0.10;0.10;;;;;;;;;;5072798;28;20062;-76
2023/05/07 05:29:50;;;;;;;0.52;0.52;;;;;;;;;;5072901;28;20111;-75
2023/05/07 05:32:15;;;;;;;0.10;0.10;;;;;;;;;;5072687;28;20032;-75
2023/05/07 05:34:41;;;;;;;0.30;0.30;;;;;;;;;;5072508;28;20453;-74
2023/05/07 05:37:06;;;;;;;0.10;0.10;;;;;;;;;;5090831;28;20480;-75
2023/05/07 05:39:32;;;;;;;0.15;0.15;;;;;;;;;;5072380;28;20414;-75
2023/05/07 05:41:58;;;;;;;0.10;0.10;;;;;;;;;;5070992;28;20036;-75
2023/05/07 05:44:23;;;;;;;0.10;0.10;;;;;;;;;;5085074;28;20547;-76
2023/05/07 05:46:54;;;;;;;0.17;0.17;;;;;;;;;;5062300;28;20036;-75
2023/05/07 05:49:19;;;;;;;0.20;0.20;;;;;;;;;;5052384;28;20036;-77
2023/05/07 05:51:45;;;;;;;0.10;0.10;;;;;;;;;;5052283;28;20020;-78
2023/05/07 05:54:12;;;;;;;0.20;0.20;;;;;;;;;;5052375;28;20039;-79
2023/05/07 05:56:37;;;;;;;0.10;0.10;;;;;;;;;;5052118;28;20384;-75
2023/05/07 05:59:03;;;;;;;0.20;0.20;;;;;;;;;;5070189;28;20484;-76
2023/05/07 06:01:29;;;;;;;0.20;0.20;;;;;;;;;;5052574;28;20064;-78
2023/05/07 06:03:56;;;;;;;0.20;0.20;;;;;;;;;;5051811;28;20407;-78
2023/05/07 06:06:22;;;;;;;0.20;0.20;;;;;;;;;;5070078;28;20036;-79
2023/05/07 06:08:47;;;;;;;0.30;0.30;;;;;;;;;;5069956;28;20152;-79
2023/05/07 06:11:17;;;;;;;0.17;0.17;;;;;;;;;;5069745;28;20177;-78
2023/05/07 06:13:45;;;;;;;0.20;0.20;;;;;;;;;;5051993;28;20056;-78
2023/05/07 06:16:10;;;;;;;0.20;0.20;;;;;;;;;;5051984;28;20121;-76
2023/05/07 06:18:36;;;;;;;0.20;0.20;;;;;;;;;;5058679;28;20119;-75
2023/05/07 06:21:02;;;;;;;0.15;0.15;;;;;;;;;;5068086;28;20040;-78
2023/05/07 06:23:30;;;;;;;0.20;0.20;;;;;;;;;;5071908;28;20040;-75
2023/05/07 06:25:55;;;;;;;0.22;0.22;;;;;;;;;;5070640;28;20022;-77
2023/05/07 06:28:26;;;;;;;0.20;0.20;;;;;;;;;;5070516;28;20364;-75
2023/05/07 06:30:51;;;;;;;0.20;0.20;;;;;;;;;;5088582;28;20043;-75
2023/05/07 06:33:17;;;;;;;0.20;0.20;;;;;;;;;;5071822;28;20032;-75
2023/05/07 06:35:42;;;;;;;0.30;0.30;;;;;;;;;;5071715;28;20513;-75
2023/05/07 06:38:08;;;;;;;0.20;0.20;;;;;;;;;;5089588;28;20955;-75
2023/05/07 06:40:33;;;;;;;0.63;0.63;;;;;;;;;;5071180;28;20111;-75
2023/05/07 06:43:00;;;;;;;0.20;0.20;;;;;;;;;;5089841;28;20067;-76
2023/05/07 06:45:48;;;;;;;0.20;0.20;;;;;;;;;;5073836;28;20040;-75
2023/05/07 06:48:14;;;;;;;0.20;0.20;;;;;;;;;;5071496;28;20032;-75
2023/05/07 06:50:54;;;;;;;1.58;1.50;;;;;;;;;;5071188;28;20413;-75
2023/05/07 06:53:20;;;;;;;0.82;0.57;;;;;;;;;;5070595;28;20047;-74
2023/05/07 06:55:46;;;;;;;0.20;0.20;;;;;;;;;;5071275;28;20032;-72
2023/05/07 06:58:12;;;;;;;0.22;0.22;;;;;;;;;;5071305;28;20146;-74
2023/05/07 07:00:38;;;;;;;0.20;0.20;;;;;;;;;;5088863;28;20082;-76
2023/05/07 07:03:04;;;;;;;0.52;0.52;;;;;;;;;;5089372;28;20047;-76
2023/05/07 07:05:30;;;;;;;0.10;0.10;;;;;;;;;;5070303;28;20028;-73
2023/05/07 07:07:56;;;;;;;2.20;1.73;;;;;;;;;;5054272;28;20036;-75
2023/05/07 07:10:22;;;;;;;0.20;0.20;;;;;;;;;;5070114;28;20047;-76
2023/05/07 07:12:50;;;;;;;0.22;0.22;;;;;;;;;;5071615;28;20028;-74
2023/05/07 07:15:15;;;;;;;0.20;0.20;;;;;;;;;;5080659;28;20032;-78
2023/05/07 07:17:41;;;;;;;0.20;0.20;;;;;;;;;;5061713;28;20040;-76
2023/05/07 07:20:07;;;;;;;0.20;0.20;;;;;;;;;;5081719;28;20028;-76
2023/05/07 07:22:32;;;;;;;0.20;0.20;;;;;;;;;;5060621;28;20028;-74
2023/05/07 07:24:58;;;;;;;0.20;0.20;;;;;;;;;;5067065;28;20031;-72
2023/05/07 07:27:24;;;;;;;0.20;0.20;;;;;;;;;;5067707;28;20392;-77
2023/05/07 07:29:49;;;;;;;0.55;0.55;;;;;;;;;;5068469;28;20043;-77
2023/05/07 07:32:15;;;;;;;0.20;0.20;;;;;;;;;;5069390;28;20028;-77
2023/05/07 07:34:40;;;;;;;0.20;0.20;;;;;;;;;;5069785;28;20094;-74
2023/05/07 07:37:06;;;;;;;0.20;0.20;;;;;;;;;;5067202;28;20502;-73
2023/05/07 07:39:33;;;;;;;0.20;0.20;;;;;;;;;;5051482;28;20074;-78
2023/05/07 07:41:59;;;;;;;5.88;1.05;;;;;;;;;;5079746;28;20067;-78
2023/05/07 07:44:28;;;;;;;0.63;0.63;;;;;;;;;;5050719;28;20077;-76
2023/05/07 07:46:57;;;;;;;0.20;0.20;;;;;;;;;;5050489;28;20039;-76
2023/05/07 07:49:25;;;;;;;0.20;0.20;;;;;;;;;;5067066;28;20633;-79
2023/05/07 07:51:51;;;;;;;0.55;0.55;;;;;;;;;;5066755;28;20112;-75
2023/05/07 07:54:16;;;;;;;0.20;0.20;;;;;;;;;;5067210;28;20036;-75
2023/05/07 07:56:42;;;;;;;0.70;0.57;;;;;;;;;;5050275;28;20483;-75
2023/05/07 07:59:09;;;;;;;0.30;0.30;;;;;;;;;;5034270;28;20488;-76
2023/05/07 08:01:37;;;;;;;0.57;0.57;;;;;;;;;;5050487;28;20094;-76
2023/05/07 08:04:05;;;;;;;0.30;0.30;;;;;;;;;;5050461;28;20415;-74
2023/05/07 08:06:34;;;;;;;0.50;0.50;;;;;;;;;;5053934;28;20032;-73
2023/05/07 08:08:59;;;;;;;0.20;0.20;;;;;;;;;;5053671;28;20530;-74
2023/05/07 08:11:25;;;;;;;0.20;0.20;;;;;;;;;;5071930;28;20036;-74
2023/05/07 08:13:53;;;;;;;0.40;0.40;;;;;;;;;;5054228;28;20068;-74
2023/05/07 08:16:19;;;;;;;0.20;0.20;;;;;;;;;;5075052;28;20083;-75
2023/05/07 08:18:44;;;;;;;0.30;0.30;;;;;;;;;;5064175;28;20124;-75
2023/05/07 08:21:11;;;;;;;0.20;0.20;;;;;;;;;;5053772;28;20031;-76
2023/05/07 08:23:37;;;;;;;0.20;0.20;;;;;;;;;;5053834;28;20029;-75
2023/05/07 08:26:03;;;;;;;0.20;0.20;;;;;;;;;;5053131;28;20036;-75
2023/05/07 08:28:29;;;;;;;0.30;0.30;;;;;;;;;;5055681;28;20035;-72
2023/05/07 08:30:56;;;;;;;0.30;0.30;;;;;;;;;;5083250;28;20460;-73
2023/05/07 08:33:23;;;;;;;0.20;0.20;;;;;;;;;;5069507;28;20043;-74
2023/05/07 08:35:48;;;;;;;0.20;0.20;;;;;;;;;;5072381;28;20435;-75
2023/05/07 08:38:14;;;;;;;0.20;0.20;;;;;;;;;;5068800;28;20040;-76
2023/05/07 08:40:41;;;;;;;0.20;0.20;;;;;;;;;;5060906;28;20383;-76
2023/05/07 08:43:12;;;;;;;0.20;0.20;;;;;;;;;;5053385;28;20471;-75
2023/05/07 08:45:39;;;;;;;0.30;0.30;;;;;;;;;;5053336;28;20491;-75
2023/05/07 08:48:14;;;;;;;0.20;0.20;;;;;;;;;;5071206;28;20044;-75
2023/05/07 08:50:41;;;;;;;0.20;0.20;;;;;;;;;;5076232;28;20040;-70
2023/05/07 08:53:06;;;;;;;0.38;0.38;;;;;;;;;;5062026;28;20399;-70
2023/05/07 08:55:33;;;;;;;0.30;0.30;;;;;;;;;;5058811;28;20384;-70
2023/05/07 08:57:59;;;;;;;0.20;0.20;;;;;;;;;;5053282;28;20078;-70
2023/05/07 09:00:24;;;;;;;0.20;0.20;;;;;;;;;;5070997;28;20020;-69
2023/05/07 09:02:53;;;;;;;0.20;0.20;;;;;;;;;;5053220;28;20044;-69
2023/05/07 09:05:19;;;;;;;0.20;0.20;;;;;;;;;;5052801;28;20171;-69
2023/05/07 09:07:45;;;;;;;0.20;0.20;;;;;;;;;;5053285;28;20125;-69
2023/05/07 09:10:13;;;;;;;0.38;0.38;;;;;;;;;;5053059;28;20040;-70
2023/05/07 09:12:40;;;;;;;0.20;0.20;;;;;;;;;;5052664;28;20028;-69
2023/05/07 09:15:07;;;;;;;0.20;0.20;;;;;;;;;;5052823;28;20036;-69
2023/05/07 09:17:34;;;;;;;0.20;0.20;;;;;;;;;;5051867;28;20086;-70
2023/05/07 09:20:04;;;;;;;0.22;0.22;;;;;;;;;;5052440;28;20507;-69
2023/05/07 09:22:35;;;;;;;0.20;0.20;;;;;;;;;;5053053;28;20403;-70
2023/05/07 09:25:05;;;;;;;0.20;0.20;;;;;;;;;;5052473;28;20082;-69
2023/05/07 09:27:31;;;;;;;1.00;0.90;;;;;;;;;;5052805;28;20045;-69
2023/05/07 09:29:58;;;;;;;0.20;0.20;;;;;;;;;;5052207;28;20127;-69
2023/05/07 09:32:24;;;;;;;0.20;0.20;;;;;;;;;;5070275;28;20107;-69
2023/05/07 09:34:50;;;;;;;0.35;0.35;;;;;;;;;;5070410;28;20036;-69
2023/05/07 09:37:18;;;;;;;0.35;0.35;;;;;;;;;;5052357;28;20028;-70
2023/05/07 09:39:49;;;;;;;0.20;0.20;;;;;;;;;;5052904;28;20024;-70
2023/05/07 09:42:22;;;;;;;0.20;0.20;;;;;;;;;;5052431;28;20487;-69
2023/05/07 09:44:49;;;;;;;0.20;0.20;;;;;;;;;;5052332;28;20431;-69
2023/05/07 09:47:19;;;;;;;0.47;0.47;;;;;;;;;;5052133;28;20032;-70
2023/05/07 09:49:47;;;;;;;0.20;0.20;;;;;;;;;;5052181;28;20046;-69
2023/05/07 09:52:14;;;;;;;1.75;1.30;;;;;;;;;;5058260;28;20055;-69
2023/05/07 09:54:47;;;;;;;0.20;0.20;;;;;;;;;;5058418;28;20020;-70
2023/05/07 09:57:15;;;;;;;1.08;0.82;;;;;;;;;;5072087;28;20039;-69
2023/05/07 09:59:43;;;;;;;0.20;0.20;;;;;;;;;;5072287;28;20068;-69
2023/05/07 10:02:11;;;;;;;0.30;0.30;;;;;;;;;;5071513;28;20043;-69
2023/05/07 10:04:44;;;;;;;1.17;0.73;;;;;;;;;;5072457;28;20024;-70
2023/05/07 10:07:09;;;;;;;0.57;0.45;;;;;;;;;;5090016;28;20395;-69
2023/05/07 10:09:38;;;;;;;1.80;1.27;;;;;;;;;;5059845;28;20075;-69
2023/05/07 10:12:05;;;;;;;0.77;0.28;;;;;;;;;;5071906;28;20472;-69
2023/05/07 10:14:32;;;;;;;0.45;0.45;;;;;;;;;;5071716;28;20089;-69
2023/05/07 10:16:58;;;;;;;0.30;0.30;;;;;;;;;;5072095;28;20040;-69
2023/05/07 10:19:25;;;;;;;0.40;0.40;;;;;;;;;;5071937;28;20579;-70
2023/05/07 10:21:59;;;;;;;0.30;0.30;;;;;;;;;;5071819;28;20536;-69
2023/05/07 10:24:27;;;;;;;0.30;0.30;;;;;;;;;;5072227;28;20088;-69
2023/05/07 10:26:52;;;;;;;0.30;0.30;;;;;;;;;;5071239;28;20044;-69
2023/05/07 10:29:38;;;;;;;0.20;0.20;;;;;;;;;;5070414;28;20024;-69
2023/05/07 10:32:05;;;;;;;0.20;0.20;;;;;;;;;;5071246;28;20403;-69
2023/05/07 10:34:34;;;;;;;0.28;0.28;;;;;;;;;;5071332;28;20028;-69
2023/05/07 10:37:00;;;;;;;0.80;0.60;;;;;;;;;;5071160;28;20369;-69
2023/05/07 10:39:27;;;;;;;7.50;0.88;;;;;;;;;;5071449;28;20020;-69
2023/05/07 10:41:52;;;;;;;0.20;0.20;;;;;;;;;;5071278;28;20127;-70
2023/05/07 10:44:25;;;;;;;0.20;0.20;;;;;;;;;;5089296;28;20118;-69
2023/05/07 10:47:10;;;;;;;0.40;0.40;;;;;;;;;;5071360;28;20039;-69
2023/05/07 10:49:46;;;;;;;0.30;0.30;;;;;;;;;;5071251;28;20040;-69
2023/05/07 10:52:20;;;;;;;0.20;0.20;;;;;;;;;;5071365;28;20060;-68
2023/05/07 10:55:24;;;;;;;0.65;0.40;;;;;;;;;;5071149;28;20036;-69
2023/05/07 10:58:26;;;;;;;0.30;0.30;;;;;;;;;;5086614;28;20083;-69
2023/05/07 11:00:55;;;;;;;;;;;;;;;;;;5055085;28;20025;-69
2023/05/07 11:03:26;;;;;;;0.22;0.22;;;;;;;;;;5051242;28;19909;-68
2023/05/07 11:06:13;;;;;;;0.80;0.73;;;;;;;;;;5050704;28;20426;-69
2023/05/07 11:08:56;;;;;;;0.30;0.30;;;;;;;;;;5050982;28;20032;-69
2023/05/07 11:11:48;;;;;;;1.30;0.63;;;;;;;;;;5051167;28;20120;-68
2023/05/07 11:14:45;;;;;;;0.30;0.30;;;;;;;;;;5063668;28;20039;-69
2023/05/07 11:17:15;;;;;;;0.30;0.30;;;;;;;;;;5067507;28;20028;-69
2023/05/07 11:19:53;;;;;;;0.30;0.30;;;;;;;;;;5053846;28;20159;-69
2023/05/07 11:22:35;;;;;;;0.20;0.20;;;;;;;;;;5068731;28;20032;-69
2023/05/07 11:25:19;;;;;;;2.00;0.77;;;;;;;;;;5070457;28;20112;-69
2023/05/07 11:27:49;;;;;;;0.55;0.45;;;;;;;;;;5070409;28;20043;-71
2023/05/07 11:30:20;;;;;;;0.73;0.65;;;;;;;;;;5070754;28;20028;-69
2023/05/07 11:32:47;;;;;;;0.82;0.68;;;;;;;;;;5070798;28;20093;-69
2023/05/07 11:35:13;;;;;;;0.73;0.70;;;;;;;;;;5087719;28;20430;-71
2023/05/07 11:37:39;;;;;;;0.57;0.57;;;;;;;;;;5068622;28;20027;-71
2023/05/07 11:40:06;;;;;;;0.20;0.20;;;;;;;;;;5067489;28;20040;-70
2023/05/07 11:42:38;;;;;;;0.30;0.30;;;;;;;;;;5086306;28;20039;-71
2023/05/07 11:45:05;;;;;;;2.78;0.82;;;;;;;;;;5086110;28;20028;-70
2023/05/07 11:47:31;;;;;;;0.95;0.68;;;;;;;;;;5086296;28;20032;-70
2023/05/07 11:49:56;;;;;;;0.20;0.20;;;;;;;;;;5086867;28;20039;-70
2023/05/07 11:52:22;;;;;;;0.47;0.35;;;;;;;;;;5088888;28;20280;-70
2023/05/07 11:54:52;;;;;;;0.52;0.50;;;;;;;;;;5088779;28;20395;-70
2023/05/07 11:57:18;;;;;;;0.45;0.40;;;;;;;;;;5088764;28;20518;-70
2023/05/07 11:59:49;;;;;;;0.20;0.20;;;;;;;;;;5088526;28;20028;-70
2023/05/07 12:02:15;;;;;;;0.25;0.25;;;;;;;;;;5070776;28;20380;-70
2023/05/07 12:04:41;;;;;;;0.30;0.30;;;;;;;;;;5088334;28;20051;-70
2023/05/07 12:07:11;;;;;;;2.05;1.00;;;;;;;;;;5088371;28;20035;-70
2023/05/07 12:09:37;;;;;;;0.80;0.75;;;;;;;;;;5070748;28;20044;-70
2023/05/07 12:12:03;;;;;;;0.65;0.60;;;;;;;;;;5088057;28;20471;-70
2023/05/07 12:14:32;;;;;;;0.30;0.30;;;;;;;;;;5088916;28;20036;-70
2023/05/07 12:16:57;;;;;;;;;;;;;;;;;;5088576;28;20124;-70
2023/05/07 12:19:23;;;;;;;0.43;0.43;;;;;;;;;;5088209;28;20089;-70
2023/05/07 12:21:48;;;;;;;0.88;0.70;;;;;;;;;;5087932;28;20028;-70
2023/05/07 12:24:14;;;;;;;0.30;0.30;;;;;;;;;;5070265;28;20066;-70
2023/05/07 12:26:42;;;;;;;0.65;0.57;;;;;;;;;;5088262;28;20035;-70
2023/05/07 12:29:07;;;;;;;0.20;0.20;;;;;;;;;;5088127;28;20055;-70
2023/05/07 12:31:33;;;;;;;1.20;0.80;;;;;;;;;;5088199;28;20036;-70
2023/05/07 12:33:58;;;;;;;0.52;0.40;;;;;;;;;;5069916;28;20032;-71
2023/05/07 12:36:25;;;;;;;2.47;1.25;;;;;;;;;;5087986;28;20034;-70
2023/05/07 12:38:51;;;;;;;0.65;0.65;;;;;;;;;;5069912;28;20039;-70
2023/05/07 12:41:16;;;;;;;0.20;0.20;;;;;;;;;;5087860;28;20127;-70
2023/05/07 12:43:45;;;;;;;0.30;0.30;;;;;;;;;;5087917;28;20032;-70
2023/05/07 12:46:13;;;;;;;0.40;0.40;;;;;;;;;;5087720;28;20097;-71
2023/05/07 12:48:43;;;;;;;0.30;0.30;;;;;;;;;;5088039;28;20152;-71
2023/05/07 12:51:10;;;;;;;0.20;0.20;;;;;;;;;;5088448;28;20416;-70
2023/05/07 12:53:39;;;;;;;0.98;0.88;;;;;;;;;;5091188;28;20475;-71
2023/05/07 12:56:05;;;;;;;1.87;0.90;;;;;;;;;;5091064;28;20036;-71
2023/05/07 12:58:32;;;;;;;0.52;0.47;;;;;;;;;;5091327;28;20266;-70
2023/05/07 13:01:00;;;;;;;0.55;0.52;;;;;;;;;;5090975;28;20035;-70
2023/05/07 13:03:30;;;;;;;0.85;0.68;;;;;;;;;;5091225;28;20403;-70
2023/05/07 13:06:24;;;;;;;2.95;0.73;;;;;;;;;;5091129;28;20032;-70
2023/05/07 13:08:50;;;;;;;0.20;0.20;;;;;;;;;;5088384;28;20036;-70
2023/05/07 13:11:15;;;;;;;0.20;0.20;;;;;;;;;;5091135;28;20097;-70
2023/05/07 13:13:41;;;;;;;0.50;0.40;;;;;;;;;;5090802;28;20044;-70
2023/05/07 13:16:08;;;;;;;0.20;0.20;;;;;;;;;;5082651;28;20066;-69
2023/05/07 13:18:34;;;;;;;0.65;0.65;;;;;;;;;;5079747;28;20077;-71
2023/05/07 13:21:00;;;;;;;0.52;0.40;;;;;;;;;;5079808;28;20138;-71
2023/05/07 13:23:26;;;;;;;0.13;0.13;;;;;;;;;;5070855;28;20028;-70
2023/05/07 13:25:53;;;;;;;0.30;0.22;;;;;;;;;;5072731;28;20043;-69
2023/05/07 13:28:20;;;;;;;0.20;0.20;;;;;;;;;;5084385;28;20035;-70
2023/05/07 13:30:45;;;;;;;0.50;0.50;;;;;;;;;;5079263;28;20036;-70
2023/05/07 13:33:11;;;;;;;0.20;0.20;;;;;;;;;;5058569;28;20056;-70
2023/05/07 13:35:36;;;;;;;0.20;0.20;;;;;;;;;;5080417;28;20120;-71
2023/05/07 13:38:02;;;;;;;0.30;0.30;;;;;;;;;;5088633;28;20165;-70
2023/05/07 13:40:27;;;;;;;0.30;0.30;;;;;;;;;;5070902;28;20119;-69
2023/05/07 13:42:53;;;;;;;0.20;0.20;;;;;;;;;;5068313;28;20032;-70
2023/05/07 13:45:18;;;;;;;0.30;0.30;;;;;;;;;;5079303;28;20020;-70
2023/05/07 13:47:45;;;;;;;0.20;0.20;;;;;;;;;;5079433;28;20113;-70
2023/05/07 13:50:11;;;;;;;0.43;0.43;;;;;;;;;;5069855;28;20075;-70
2023/05/07 13:52:40;;;;;;;0.20;0.20;;;;;;;;;;5070561;28;20098;-70
2023/05/07 13:55:07;;;;;;;0.30;0.30;;;;;;;;;;5069988;28;20472;-69
2023/05/07 13:57:32;;;;;;;0.40;0.40;;;;;;;;;;5069987;28;20040;-70
2023/05/07 13:59:57;;;;;;;0.20;0.20;;;;;;;;;;5069768;28;20044;-70
2023/05/07 14:02:23;;;;;;;0.25;0.25;;;;;;;;;;5070167;28;20036;-70
2023/05/07 14:04:49;;;;;;;0.55;0.50;;;;;;;;;;5070199;28;20036;-70
2023/05/07 14:07:14;;;;;;;0.35;0.35;;;;;;;;;;5052062;28;20060;-70
2023/05/07 14:09:40;;;;;;;0.20;0.20;;;;;;;;;;5072703;28;20059;-70
2023/05/07 14:12:06;;;;;;;0.30;0.30;;;;;;;;;;5064481;28;20445;-71
2023/05/07 14:14:32;;;;;;;0.32;0.20;;;;;;;;;;5075732;28;20526;-70
2023/05/07 14:16:57;;;;;;;0.20;0.20;;;;;;;;;;5080199;28;20036;-70
2023/05/07 14:19:22;;;;;;;0.32;0.30;;;;;;;;;;5088661;28;20036;-70
2023/05/07 14:21:48;;;;;;;0.20;0.20;;;;;;;;;;5089600;28;20055;-71
2023/05/07 14:24:13;;;;;;;3.75;0.32;;;;;;;;;;5085335;28;20081;-70
2023/05/07 14:26:39;;;;;;;0.30;0.30;;;;;;;;;;5086954;28;20070;-70
2023/05/07 14:29:04;;;;;;;0.30;0.30;;;;;;;;;;5068298;28;20036;-71
2023/05/07 14:31:30;;;;;;;0.98;0.50;;;;;;;;;;5075687;28;20050;-71
2023/05/07 14:33:57;;;;;;;0.20;0.20;;;;;;;;;;5061925;28;20036;-70
2023/05/07 14:36:25;;;;;;;0.75;0.40;;;;;;;;;;5070492;28;20032;-70
2023/05/07 14:38:51;;;;;;;0.40;0.40;;;;;;;;;;5087636;28;20024;-70
2023/05/07 14:41:16;;;;;;;0.30;0.30;;;;;;;;;;5086512;28;20104;-70
2023/05/07 14:43:42;;;;;;;0.50;0.50;;;;;;;;;;5069257;28;20106;-70